Tiempo atmosférico en la estación meteorológica de Andújar, Jaén (193 m.)



Fecha
DESCASC
Temp. máxima en grados centígrados (hora)
DESCASC
Temp. mínima en grados centígrados (hora)
DESCASC
Temp. media en grados centígrados
DESCASC
Racha de viento máxima en m/sg (hora)
DESCASC
Velocidad máxima media en intervalos de 10 minutos(hora)
DESCASC
Precipitaciones diarias en mm
DESCASC
Precipitaciones de 00:00 a 06:00 en mm
DESCASC
Precipitaciones de 06:00 a 12:00 en mm
DESCASC
Precipitaciones de 12:00 a 18:00 en mm
DESCASC
Precipitaciones de 18:00 a 24:00 en mm
DESCASC
22-11-2020 20.3 (16:40) 2.1 (08:30) 11.2 4.17 (11:10) 2.22 (11:10) 0 0 0 0 0
21-11-2020 21.7 (15:30) 2.4 (08:10) 12.1 5 (12:20) 3.06 (12:30) 0 0 0 0 0
20-11-2020 23.8 (16:20) 7.3 (08:00) 15.5 5.83 (13:50) 3.33 (14:40) 0 0 0 0 0
19-11-2020 26.2 (16:40) 5.5 (00:00) 15.9 5.28 (12:10) 2.78 (12:10) 0 0 0 0 0
18-11-2020 25.2 (15:40) 7 (00:00) 16.1 5 (10:50) 2.22 (11:50) 0 0 0 0 0
17-11-2020 24.3 (16:20) 9.5 (00:00) 16.9 4.17 (12:40) 1.67 (18:10) 0 0 0 0 0
16-11-2020 22.7 (16:10) 10 (00:00) 16.4 4.17 (14:40) 2.22 (12:40) 0 0 0 0 0
15-11-2020 23.5 (16:00) 12.3 (00:00) 17.9 3.89 (12:00) 2.22 (12:10) 0.1 0 0 0.1 0
14-11-2020 16.2 (14:40) 12.4 (00:00) 14.3 3.06 (04:20) 1.67 (05:00) 2 0.2 0 1.6 0.2
13-11-2020 22.3 (15:50) 4.9 (00:00) 13.6 4.44 (12:50) 2.5 (12:30) 0 0 0 0 0
12-11-2020 21.1 (15:40) 5.5 (00:00) 13.3 6.39 (11:20) 3.61 (11:20) 0 0 0 0 0
11-11-2020 21.9 (15:50) 5.6 (00:00) 13.7 5.83 (11:10) 3.61 (11:20) 0 0 0 0 0
10-11-2020 22.5 (16:50) 7.3 (00:00) 14.9 5.83 (13:30) 3.33 (13:50) 0 0 0 0 0
09-11-2020 19.6 (16:00) 7.6 (00:00) 13.6 4.72 (16:10) 2.5 (16:10) 0 0 0 0 0
08-11-2020 21.8 (15:10) 7.4 (00:00) 14.6 5 (11:40) 3.06 (16:50) 0 0 0 0 0
07-11-2020 19.2 (16:30) 9.4 (00:00) 14.3 13.61 (04:00) 8.89 (04:00) 11.5 4 7.5 0 0
06-11-2020 24.2 (12:20) 15.1 (00:00) 19.7 8.61 (21:30) 5.28 (21:30) 5.1 0 0 0 5.1
05-11-2020 20.9 (16:00) 13.4 (00:00) 17.1 7.78 (14:10) 4.17 (13:00) 2.4 1.3 1.1 0 0
04-11-2020 18.3 (00:10) 13.2 (00:00) 15.7 6.39 (02:50) 3.89 (02:50) 14.5 6.7 7.7 0.1 0
03-11-2020 26.8 (12:50) 5.6 (00:00) 16.2 5 (15:50) 3.61 (15:50) 0 0 0 0 0
02-11-2020 28.5 (16:10) 5.9 (00:00) 17.2 4.17 (09:40) 2.22 (11:00) 0 0 0 0 0
01-11-2020 28.2 (16:10) 6.3 (00:00) 17.3 3.89 (11:30) 2.22 (12:00) 0 0 0 0 0
31-10-2020 28.4 (15:30) 8 (00:00) 18.2 4.44 (11:00) 2.78 (17:00) 0 0 0 0 0
30-10-2020 28.5 (17:10) 7.6 (00:00) 18 5.83 (13:50) 3.06 (13:40) 0 0 0 0 0
29-10-2020 27.6 (16:40) 5.6 (00:00) 16.6 5.83 (14:10) 2.78 (10:10) 0 0 0 0 0
28-10-2020 24.1 (16:40) 4.2 (00:00) 14.2 5 (12:40) 2.78 (10:30) 0 0 0 0 0

Gráficas

Temp. máximas Temp. mínimas Temp. medias Precipitaciones Rachas de viento máximas Velocidades máximas media en intervalos de 10 minutos

Datos horarios

Fecha y hora oficial Temperatura (ºC) Velocidad del viento (km/h) Dirección del viento Racha (km/h) Dirección de racha Precipitación (mm) Presión (hPa) Tendencia (hPa) Humedad (%)
2020-11-26 23:00:00 9.3 0 Calma 6 Este 1.2 985.6 0.5 98
2020-11-26 22:00:00 9.2 0 Calma 7 Sudeste 0 985.1 0.5 97
2020-11-26 21:00:00 9.6 4 Sudeste 9 Sudeste 0 985.1 0.7 97
2020-11-26 20:00:00 9.4 0 Calma 9 Sudeste 0 985.1 0.7 97
2020-11-26 19:00:00 10.1 3 Sudeste 8 Este 0.3 984.6 0.5 97
2020-11-26 18:00:00 10.3 3 Sur 7 Sudeste 0 984.4 0.3 96
2020-11-26 17:00:00 10.7 0 Calma 7 Oeste 0.2 984.4 -0.2 94
2020-11-26 16:00:00 11 0 Calma 7 Norte 0.1 984.1 -1.1 92
2020-11-26 15:00:00 10.7 0 Calma 8 Oeste 1.4 984.1 -1 96
2020-11-26 14:00:00 10.9 0 Calma 4 Oeste 1.5 984.6 -0.9 98
2020-11-26 13:00:00 11.2 5 Oeste 14 Oeste 0.8 985.2 -- 98
2020-11-26 12:00:00 11.1 8 Oeste 17 Oeste 2.5 985.1 -- 98
2020-11-26 11:00:00 10.6 5 Oeste 11 Sudoeste 2.7 985.5 -- 99
2020-11-26 10:00:00 10.4 5 Oeste 9 Sudoeste 0.8 984.7 -- 98
2020-11-26 09:00:00 10.1 0 Calma 5 Sur 0.1 984.3 -- 98
2020-11-26 08:00:00 10 0 Calma 6 Este 0.7 984.2 -- 98
2020-11-26 07:00:00 10.3 0 Calma 10 Sudoeste 1 985 -- 98
2020-11-26 06:00:00 10.5 3 Sudoeste 13 Sudoeste 1.4 985 -- 98
2020-11-26 05:00:00 10.3 5 Oeste 10 Noroeste 1.3 985.5 -- 98
2020-11-26 04:00:00 10.4 7 Noroeste 16 Sur 0.5 985.2 -- 96
2020-11-26 03:00:00 10.9 9 Sudeste 19 Sudeste 0 984.9 -- 95
2020-11-26 02:00:00 10.4 5 Sudeste 18 Sudeste 0 985 -- 98
2020-11-26 01:00:00 10.6 6 Sudeste 17 Este 0.4 986.4 -- 98
2020-11-26 00:00:00 10.6 0 Calma 10 Sudeste 0.4 987.2 -- 98
2020-11-25 23:00:00 10.4 4 Este 17 Sudeste 0 987.3 -- 98
2020-11-25 22:00:00 10.9 5 Sudeste 14 Sudeste 0.1 987.6 -- 98
2020-11-25 21:00:00 10.8 3 Sudeste 8 Sudeste 2.3 987.9 -- 98
2020-11-25 20:00:00 10.9 3 Oeste 6 Oeste 1.8 988.4 -- 98
2020-11-25 19:00:00 11.1 3 Oeste 5 Oeste 3.4 988.8 -- 98
2020-11-25 18:00:00 11.4 0 Calma 3 Sur 0.2 988.4 -- 97
2020-11-25 17:00:00 11.6 4 Sur 9 Oeste 0.2 988.7 -- 92
2020-11-25 16:00:00 11.8 12 Oeste 56 Oeste 0.1 988.4 -- 90
2020-11-25 15:00:00 17 11 Este 21 Este 0 987.5 -- 48
2020-11-25 14:00:00 17.5 5 Este 13 Este 0 988.8 -- 49
2020-11-25 13:00:00 15.4 9 Este 18 Sudeste 0 990.1 -- 59
2020-11-25 12:00:00 13.6 8 Este 20 Este 0 991.6 -- 61
2020-11-25 11:00:00 11.9 10 Este 20 Este 0 992.4 -- 65
2020-11-25 10:00:00 10.7 8 Este 13 Este 0 992.8 -- 77
2020-11-25 09:00:00 8.9 6 Sudeste 10 Sudeste 0 993 -- 84
2020-11-25 08:00:00 8.4 5 Sudeste 12 Este 0 993.2 -- 85
2020-11-25 07:00:00 8.7 6 Este 14 Sudeste 0 993.2 -- 83
2020-11-25 06:00:00 8.2 5 Sudeste 14 Este 0 993.3 -- 84
2020-11-25 05:00:00 8 4 Este 9 Este 0 993.6 -- 91
2020-11-25 04:00:00 8.1 3 Este 6 Sudeste 0 994 -- 87
2020-11-25 03:00:00 8.4 6 Este 12 Este 0 994.2 -1.2 87
2020-11-25 02:00:00 8.3 0 Calma 9 Este 0.1 994.6 -- 86
2020-11-25 01:00:00 9.3 6 Este 16 Sudeste 0 995 -- 71
2020-11-25 00:00:00 8.8 2 Sudeste 14 Sudeste 0 995.4 -- 74
2020-11-24 23:00:00 8.8 5 Sudeste 11 Sudeste 0 995.7 -- 79
2020-11-24 22:00:00 6.5 0 Calma 3 Sudeste 0 996.1 -- 88
2020-11-24 21:00:00 6.6 2 Este 5 Sudeste 0 996.2 -- 86
2020-11-24 20:00:00 8 0 Calma 6 Sudoeste 0 996.2 -- 76
2020-11-24 19:00:00 10.4 0 Calma 6 Sudoeste 0 996.3 -- 63
2020-11-24 18:00:00 12.2 3 Sudoeste 6 Noroeste 0 996.1 -- 52
2020-11-24 17:00:00 16.9 4 Oeste 12 Noroeste 0 996 -- 37
2020-11-24 16:00:00 17.2 4 Noroeste 10 Noroeste 0 996.4 -- 36
2020-11-24 15:00:00 17.1 2 Sudoeste 8 Oeste 0 997.1 -- 36
2020-11-24 14:00:00 15.5 0 Calma 7 Sudeste 0 998 -- 40
2020-11-24 13:00:00 12.7 0 Calma 8 Este 0 999.2 -- 46
2020-11-24 12:00:00 11.4 0 Calma 7 Sur 0 1000.4 -- 55
2020-11-24 11:00:00 6.9 0 Calma 4 Sudeste 0 1001 -- 82
2020-11-24 10:00:00 3.3 0 Calma 4 Este 0 1001 -- 98
2020-11-24 09:00:00 0.3 0 Calma -- -- 0 1000.9 -- 98
2020-11-24 08:00:00 -0.4 0 Calma 0 Calma 0 1000.6 -- 98
2020-11-24 07:00:00 -0.7 0 Calma 5 Este 0 1000.1 -- 98
2020-11-24 06:00:00 0.2 0 Calma 3 Este 0 1000.1 -- 98
2020-11-24 05:00:00 0.5 0 Calma -- -- 0 1000.1 -- 98
2020-11-24 04:00:00 0.3 0 Calma 3 Este 0 1000.3 -- 98
2020-11-24 03:00:00 0.6 0 Calma 5 Este 0 1000.6 -- 98
2020-11-24 02:00:00 0.9 3 Este 5 Este 0 1000.8 -- 98
2020-11-24 01:00:00 1.9 0 Calma 0 Calma 0 1001.1 -- 98
2020-11-24 00:00:00 2.3 0 Calma 5 Este 0 1001.5 -- 97
2020-11-23 23:00:00 3.2 2 Este 4 Este 0 1001.5 -- 94
2020-11-23 22:00:00 4.6 0 Calma 6 Este 0 1001.5 -- 90
2020-11-23 21:00:00 5.2 0 Calma -- -- 0 1001.1 -- 85
2020-11-23 20:00:00 6.5 0 Calma 5 Sudoeste 0 1001 -- 72
2020-11-23 19:00:00 9.1 3 Oeste 8 Sudoeste 0 1000.8 -- 54
2020-11-23 18:00:00 11.5 4 Sudoeste 6 Sudoeste 0 1000.3 -- 48
2020-11-23 17:00:00 18.1 4 Oeste 12 Oeste 0 1000.1 -- 31
2020-11-23 16:00:00 18.2 7 Oeste 12 Oeste 0 1000.4 -- 32
2020-11-23 15:00:00 18.4 3 Oeste 10 Noroeste 0 1000.6 -- 33
2020-11-23 14:00:00 16.4 4 Este 9 Sudeste 0 1001.2 -- 35
2020-11-23 13:00:00 14.8 4 Este 9 Este 0 1002 -- 40
2020-11-23 12:00:00 12.5 4 Sudeste 11 Sur 0 1002.9 -- 50
2020-11-23 11:00:00 9 0 Calma 8 Este 0 1003.4 -- 69
2020-11-23 10:00:00 4.2 2 Este 5 Sudeste 0 1003.5 -- 98
2020-11-23 09:00:00 1.4 0 Calma -- -- 0 1003.2 -- 98
2020-11-23 08:00:00 1.2 0 Calma -- -- 0 1002.8 -- 98
2020-11-23 07:00:00 0.8 0 Calma 3 Este 0 1002.2 -- 98
2020-11-23 06:00:00 1 0 Calma 0 Calma 0 1002.1 -- 98
2020-11-23 05:00:00 1.3 0 Calma 0 Calma 0 1002.2 -- 98
2020-11-23 04:00:00 1.8 0 Calma 4 Este 0 1002.4 -- 98
2020-11-23 03:00:00 1.9 0 Calma 4 Este 0 1002.4 -- 98
2020-11-23 02:00:00 3.3 0 Calma -- -- 0 1002.4 -- 98
2020-11-23 01:00:00 3.3 0 Calma 3 Sudeste 0 1002.5 -- 98
2020-11-23 00:00:00 3.9 0 Calma 4 Este 0 1002.4 -- 97
2020-11-22 23:00:00 5.1 0 Calma 3 Sudeste 0 1002.2 -- 96
2020-11-22 22:00:00 5.3 2 Este 5 Sudeste 0 1002 -- 91
2020-11-22 21:00:00 6.6 0 Calma 3 Este 0 1001.7 -- 87
2020-11-22 20:00:00 8.2 0 Calma 4 Sudoeste 0 1001.2 -- 77
2020-11-22 19:00:00 10 0 Calma 4 Norte 0 1000.9 -- 64
2020-11-22 18:00:00 13.2 0 Calma 6 Sudeste 0 1000.7 -- 50
2020-11-22 17:00:00 19.6 2 Sudeste 7 Nordeste 0 1000.8 -- 33
2020-11-22 16:00:00 19.7 2 Sur 8 Sudeste 0 1000.6 -- 33
2020-11-22 15:00:00 19.3 3 Sur 12 Este 0 1001.2 -- 34
2020-11-22 14:00:00 17.7 5 Este 15 Este 0 1001.9 -- 37
2020-11-22 13:00:00 15.8 5 Este 14 Este 0 1002.8 -- 44
2020-11-22 12:00:00 14.6 6 Sudeste 15 Este 0 1003.7 -- 49
2020-11-22 11:00:00 12.4 7 Sudeste 13 Sur 0 1004.2 -- 61
2020-11-22 10:00:00 7 3 Oeste 5 Oeste 0 1004.2 -- 98
2020-11-22 09:00:00 4.1 0 Calma 5 Sudeste 0 1003.8 -- 98
2020-11-22 08:00:00 2.8 0 Calma 3 Sudeste 0 1003.5 -- 98
2020-11-22 07:00:00 3.3 0 Calma 0 Calma 0 1003.2 -- 98
2020-11-22 06:00:00 3.7 0 Calma 3 Sudeste 0 1002.9 -- 98
2020-11-22 05:00:00 4.2 0 Calma 7 Este 0 1002.5 -- 98
2020-11-22 04:00:00 3.9 3 Este 5 Este 0 1002.5 -- 98
2020-11-22 03:00:00 5.6 0 Calma 5 Este 0 1002.3 -- 98
2020-11-22 02:00:00 5 3 Oeste 4 Oeste 0 1002.4 -- 98
2020-11-22 01:00:00 6.4 0 Calma 0 Calma 0 1002.5 -- 98
2020-11-22 00:00:00 7.5 0 Calma 9 Este 0 1002.2 -- 94
2020-11-21 23:00:00 8.8 5 Noroeste 11 Oeste 0 1002.1 -- 92
2020-11-21 22:00:00 8.9 4 Este 9 Este 0 1001.7 -- 90
2020-11-21 21:00:00 9.3 4 Este 5 Sudeste 0 1001.2 -- 87
2020-11-21 20:00:00 11.3 0 Calma 0 Calma 0 1000.7 -- 76
2020-11-21 19:00:00 13.4 0 Calma 8 Sudoeste 0 1000.5 -- 63
2020-11-21 18:00:00 15.3 6 Sudoeste 7 Sudoeste 0 999.9 -- 54
2020-11-21 17:00:00 20.3 5 Oeste 9 Oeste 0 999.7 -- 38
2020-11-21 16:00:00 20.8 4 Noroeste 9 Oeste 0 999.3 -- 37
2020-11-21 15:00:00 21 3 Este 11 Este 0 999.6 -- 37
2020-11-21 14:00:00 19.1 4 Este 11 Este 0 1000.3 -- 40
2020-11-21 13:00:00 17.5 6 Sudeste 18 Sudeste 0 1001 -- 44
2020-11-21 12:00:00 15.7 10 Este 17 Este 0 1001.9 -- 48
2020-11-21 11:00:00 13.7 0 Calma 5 Este 0 1001.9 -- 54
2020-11-21 10:00:00 7.9 3 Sudeste 6 Este 0 1002 -- 83
2020-11-21 09:00:00 4.2 0 Calma 6 Oeste 0 1001.4 -- 98
2020-11-21 08:00:00 2.7 0 Calma 4 Sudeste 0 1001.1 -- 98
2020-11-21 07:00:00 3.1 0 Calma -- -- 0 1000.9 -- 98
2020-11-21 06:00:00 3.4 0 Calma -- -- 0 1000.4 -- 98
2020-11-21 05:00:00 4.2 0 Calma -- -- 0 1000.1 -- 95
2020-11-21 04:00:00 4.6 0 Calma 5 Oeste 0 1000.1 -- 92
2020-11-21 03:00:00 5.6 4 Este 9 Sudeste 0 999.9 -- 87
2020-11-21 02:00:00 6.2 3 Este 6 Noroeste 0 1000.2 -- 81
2020-11-21 01:00:00 6.8 2 Sudeste 5 Este 0 1000.6 -- 72
2020-11-21 00:00:00 8.3 3 Sudeste 11 Este 0 1000.5 -- 65
2020-11-20 23:00:00 10.1 5 Sudeste 10 Sudeste 0 1000.5 -- 55
2020-11-20 22:00:00 9.8 4 Este 6 Este 0 1000.3 -- 55
2020-11-20 21:00:00 12.5 4 Este 7 Este 0 999.9 -- 45
2020-11-20 20:00:00 12.9 3 Este 7 Sudeste 0 999.6 -- 39
2020-11-20 19:00:00 17.3 0 Calma 12 Norte 0 999.6 -- 31
2020-11-20 18:00:00 16.3 0 Calma 8 Sur 0 999.3 -- 35
2020-11-20 17:00:00 22.4 4 Sudeste 14 Este 0 999.5 -- 25
2020-11-20 16:00:00 23.4 7 Sudeste 18 Este 0 999.4 -- 25
2020-11-20 15:00:00 22 8 Sudeste 19 Este 0 1000.1 -- 29
2020-11-20 14:00:00 21.4 10 Sudeste 21 Este 0 1000.8 -- 35
2020-11-20 13:00:00 19.6 10 Este 19 Sudeste 0 1001.8 -- 41
2020-11-20 12:00:00 18.2 10 Este 19 Sudeste 0 1002.6 -- 47
2020-11-20 11:00:00 16 6 Este 14 Este 0 1003.1 -- 59
2020-11-20 10:00:00 13.9 9 Sudeste 16 Sur 0 1003.1 -- 69
2020-11-20 09:00:00 8.8 3 Este 10 Este 0 1003 -- 95
2020-11-20 08:00:00 7.9 6 Este 11 Este 0 1002.6 -- 96
2020-11-20 07:00:00 8.4 3 Sudeste 10 Este 0 1002.5 -- 96
2020-11-20 06:00:00 8.5 5 Este 8 Este 0 1002.6 -- 95
2020-11-20 05:00:00 8.6 2 Este 6 Sur 0 1002.6 -- 96
2020-11-20 04:00:00 8.3 0 Calma 8 Este 0 1002.7 -- 93
2020-11-20 03:00:00 9.3 0 Calma 5 Sudeste 0 1003 -- 90
2020-11-20 02:00:00 10.3 5 Sudeste 6 Este 0 1003.1 -- 85
2020-11-20 01:00:00 11.3 0 Calma 10 Sudeste 0 1003.9 -- 78
2020-11-20 00:00:00 13.9 5 Sudeste 10 Sudeste 0 1003.8 -- 67
2020-11-19 23:00:00 13.4 4 Sudeste 8 Este 0 1004 -- 69
2020-11-19 22:00:00 14.4 2 Sudeste 8 Sudeste 0 1004.1 -- 60
2020-11-19 21:00:00 17 0 Calma 11 Sudeste 0 1003.5 -- 47
2020-11-19 20:00:00 20.8 4 Nordeste 16 Este 0 1003 -- 36
2020-11-19 19:00:00 20.2 2 Nordeste 9 Norte 0 1002.3 -- 37
2020-11-19 18:00:00 20.3 0 Calma 12 Norte 0 1001.5 -- 35
2020-11-19 17:00:00 25.1 5 Nordeste 16 Este 0 1001.7 -- 29
2020-11-19 16:00:00 25.3 8 Este 17 Sudeste 0 1001.7 -- 32
2020-11-19 15:00:00 24.8 9 Este 16 Este 0 1001.7 -- 33
2020-11-19 14:00:00 23.1 6 Sudeste 14 Sur 0 1002.3 -- 37
2020-11-19 13:00:00 20.5 6 Este 19 Sudeste 0 1003.3 -- 42
2020-11-19 12:00:00 18.3 10 Sudeste 19 Este 0 1003.9 -- 47
2020-11-19 11:00:00 15.8 9 Este 15 Este 0 1004.3 -- 58
2020-11-19 10:00:00 10.1 0 Calma 4 Este 0 1004.5 -- 98
2020-11-19 09:00:00 7.9 0 Calma 3 Sur 0 1004 -- 98
2020-11-19 08:00:00 5.9 0 Calma 4 Oeste 0 1003.1 -- 98
2020-11-19 07:00:00 6.9 0 Calma -- -- 0 1002.5 -- 98
2020-11-19 06:00:00 7 0 Calma -- -- 0 1002.2 -- 98
2020-11-19 05:00:00 7.7 0 Calma 5 Este 0 1001.8 -- 98
2020-11-19 04:00:00 8.1 0 Calma 4 Este 0 1001.7 -- 98
2020-11-19 03:00:00 8 0 Calma 0 Calma 0 1001.7 -- 98
2020-11-19 02:00:00 8.6 0 Calma 2 Sudeste 0 1001.6 -- 98
2020-11-19 01:00:00 9 0 Calma 4 Este 0 1002 -- 98
2020-11-19 00:00:00 9.7 4 Este 7 Este 0 1002 -- 97
2020-11-18 23:00:00 10.2 2 Sudeste 4 Este 0 1001.8 -- 97
2020-11-18 22:00:00 10.8 0 Calma 6 Este 0 1001.6 -- 93
2020-11-18 21:00:00 11.8 0 Calma 9 Este 0 1001.1 -- 89
2020-11-18 20:00:00 13.7 3 Este 5 Oeste 0 1000.5 -- 79
2020-11-18 19:00:00 15.6 0 Calma 5 Oeste 0 1000.2 -- 65
2020-11-18 18:00:00 18.4 0 Calma 3 Sur 0 999.7 -- 51
2020-11-18 17:00:00 23.9 3 Este 8 Este 0 999.7 -- 36
2020-11-18 16:00:00 24 2 Este 9 Este 0 999.9 -- 35
2020-11-18 15:00:00 23.8 3 Este 11 Este 0 1000.3 -- 37
2020-11-18 14:00:00 22.5 2 Sudeste 10 Sudeste 0 1000.6 -- 39
2020-11-18 13:00:00 20.4 4 Sudeste 14 Sudeste 0 1001.7 -- 45
2020-11-18 12:00:00 17.9 6 Sudeste 15 Este 0 1002.6 -- 53
2020-11-18 11:00:00 15 5 Este 18 Este 0 1003.1 -- 69
2020-11-18 10:00:00 11.1 3 Este 8 Este 0 1003.3 -- 98
2020-11-18 09:00:00 9 2 Sudeste 7 Este 0 1003.1 -- 98
2020-11-18 08:00:00 7.7 3 Sudeste 8 Este 0 1002.6 -- 98
2020-11-18 07:00:00 8.2 3 Este 8 Este 0 1002.4 -- 98
2020-11-18 06:00:00 8.1 0 Calma 6 Nordeste 0 1002.2 -- 98
2020-11-18 05:00:00 7.8 0 Calma -- -- 0 1002.2 -- 98
2020-11-18 04:00:00 8.1 0 Calma -- -- 0 1002.3 -- 98
2020-11-18 03:00:00 8.3 0 Calma 3 Oeste 0 1002.4 -- 98
2020-11-18 02:00:00 9.6 2 Este 5 Este 0 1002.5 -- 98
2020-11-18 01:00:00 9.4 0 Calma 0 Calma 0 1002.8 -- 98
2020-11-18 00:00:00 9.8 0 Calma 2 Sur 0 1002.7 -- 98
2020-11-17 23:00:00 10.1 0 Calma 4 Sudeste 0 1002.8 -- 97
2020-11-17 22:00:00 11.1 2 Este 6 Sudeste 0 1002.3 -- 95
2020-11-17 21:00:00 11.9 0 Calma 2 Sudoeste 0 1001.9 -- 94
2020-11-17 20:00:00 13 0 Calma 4 Este 0 1001.7 -- 84
2020-11-17 19:00:00 15.3 0 Calma 8 Sudoeste 0 1001.3 -- 69
2020-11-17 18:00:00 17.9 6 Sudoeste 7 Sudoeste 0 1000.7 -- 55
2020-11-17 17:00:00 23 0 Calma 5 Oeste 0 1000.8 -- 40
2020-11-17 16:00:00 23.1 0 Calma 9 Sudoeste 0 1000.6 -- 40
2020-11-17 15:00:00 22.2 0 Calma 10 Sudeste 0 1001 -- 48
2020-11-17 14:00:00 21.6 3 Sudoeste 13 Este 0 1001.4 -- 55
2020-11-17 13:00:00 20 3 Nordeste 15 Sudeste 0 1002.1 -- 62
2020-11-17 12:00:00 17.6 3 Nordeste 8 Norte 0 1003 -- 89
2020-11-17 11:00:00 14.1 0 Calma -- -- 0 1003.2 -- 98
2020-11-17 10:00:00 12.7 0 Calma -- -- 0 1002.9 -- 98
2020-11-17 09:00:00 11.7 0 Calma -- -- 0 1002.4 -- 98
2020-11-17 08:00:00 11.1 0 Calma 3 Sudoeste 0 1001.9 -- 98
2020-11-17 07:00:00 11.6 0 Calma -- -- 0 1001.4 -- 98
2020-11-17 06:00:00 11.5 0 Calma 6 Sudeste 0 1001.2 -- 98
2020-11-17 05:00:00 12.1 3 Sudeste 9 Sudeste 0 1000.9 -- 98
2020-11-17 04:00:00 10.9 0 Calma 5 Este 0 1001 -- 98
2020-11-17 03:00:00 11 0 Calma 0 Calma 0 1000.8 -- 98
2020-11-17 02:00:00 11 0 Calma 3 Sudeste 0 1000.8 -- 98
2020-11-17 01:00:00 11.9 0 Calma 3 Sur 0 1000.9 -- 98
2020-11-17 00:00:00 12.6 0 Calma 6 Oeste 0 1000.7 -- 98
2020-11-16 23:00:00 12.8 0 Calma 4 Noroeste 0 1000.8 -- 98
2020-11-16 22:00:00 13.6 0 Calma 5 Sudeste 0 1000.8 -- 97
2020-11-16 21:00:00 14.5 0 Calma -- -- 0 1000.2 -- 95
2020-11-16 20:00:00 16 0 Calma -- -- 0 999.7 -- 91
2020-11-16 19:00:00 17.6 0 Calma 7 Sudoeste 0 998.9 -- 84
2020-11-16 18:00:00 18.3 0 Calma 8 Oeste 0 998.3 -- 75
2020-11-16 17:00:00 21.9 5 Sudoeste 12 Sudoeste 0 998.5 -- 55
2020-11-16 16:00:00 22 6 Sudoeste 11 Sur 0 998.1 -- 55
2020-11-16 15:00:00 22.3 4 Oeste 15 Noroeste 0 998.2 -- 58
2020-11-16 14:00:00 20.9 7 Oeste 14 Oeste 0 998.6 -- 66
2020-11-16 13:00:00 19.5 7 Noroeste 14 Oeste 0 999.4 -- 72
2020-11-16 12:00:00 17.8 4 Noroeste 10 Noroeste 0 1000.4 -- 75
2020-11-16 11:00:00 15.8 0 Calma 5 Sudeste 0 1000.4 -- 98
2020-11-16 10:00:00 12.7 0 Calma 0 Calma 0 999.9 -- 98
2020-11-16 09:00:00 10.8 0 Calma 5 Oeste 0 999.4 -- 98
2020-11-16 08:00:00 10.1 0 Calma 3 Sudoeste 0 999 -- 98
2020-11-16 07:00:00 10.5 0 Calma 3 Sudoeste 0 998.2 -- 98
2020-11-16 06:00:00 11.7 0 Calma 4 Este 0 997.9 -- 98
2020-11-16 05:00:00 11.3 0 Calma 4 Sur 0 997.9 -- 98
2020-11-16 04:00:00 11.6 0 Calma 4 Nordeste 0 998.1 -- 98
2020-11-16 03:00:00 11.5 0 Calma 5 Oeste 0 998 -- 98
2020-11-16 02:00:00 11.3 0 Calma 4 Sudeste 0 997.9 -- 98
2020-11-16 01:00:00 12 0 Calma 4 Sudoeste 0 998 -- 98
2020-11-16 00:00:00 12.6 0 Calma 3 Sudeste 0 997.8 -- 98
2020-11-15 23:00:00 13.1 0 Calma -- -- 0 998.5 -- 98
2020-11-15 22:00:00 14 0 Calma -- -- 0 998.5 -- 98
2020-11-15 21:00:00 14.9 0 Calma 0 Calma 0 998.2 -- 95
2020-11-15 20:00:00 15.7 0 Calma 3 Sudeste 0 998.1 -- 92
2020-11-15 19:00:00 16.9 0 Calma 3 Sudoeste 0 997.6 -- 84
2020-11-15 18:00:00 19.1 3 Sudoeste 8 Noroeste 0 997.2 -- 71
2020-11-15 17:00:00 22 4 Noroeste 7 Noroeste 0 997 -- 54
2020-11-15 16:00:00 22.8 0 Calma 10 Este 0 996.9 -- 51
2020-11-15 15:00:00 22.7 2 Sudeste 11 Este 0.1 997 -- 51
2020-11-15 14:00:00 20.8 2 Este 13 Este 0 997.7 -- 54
2020-11-15 13:00:00 19.8 4 Sudeste 14 Este 0 998.3 -- 65
2020-11-15 12:00:00 17.5 7 Este 14 Este 0 999 -- 81
2020-11-15 11:00:00 15.8 0 Calma 8 Sudeste 0 999.4 -- 98
2020-11-15 10:00:00 14.2 0 Calma 5 Este 0 999.2 -- 98
2020-11-15 09:00:00 13.8 0 Calma 10 Sur 0 999 -- 98
2020-11-15 08:00:00 13.1 2 Este 7 Este 0 998.6 -- 98
2020-11-15 07:00:00 13.7 0 Calma 2 Sudeste 0 998.1 -- 98
2020-11-15 06:00:00 14 0 Calma 3 Sur 0 997.8 -- 98
2020-11-15 05:00:00 13.8 0 Calma 9 Este 0 997.7 -- 98
2020-11-15 04:00:00 14.1 2 Sudeste 5 Sudeste 0 998 -- 98
2020-11-15 03:00:00 14 0 Calma 2 Oeste 0 998.4 -- 98
2020-11-15 02:00:00 13.6 0 Calma 8 Este 0 998.5 -- 98
2020-11-15 01:00:00 14.1 0 Calma 2 Sudoeste 0 998.6 -- 98
2020-11-15 00:00:00 14.5 0 Calma 0 Calma 0 998.6 -- 98
2020-11-14 23:00:00 14.5 0 Calma 3 Sudeste 0 998.7 -- 98
2020-11-14 22:00:00 14.2 2 Sudeste 5 Sudeste 0 998.5 -- 98
2020-11-14 21:00:00 14.2 0 Calma 3 Este 0 998.2 -- 98
2020-11-14 20:00:00 14.5 0 Calma 4 Sudeste 0 997.9 -- 98
2020-11-14 19:00:00 14.8 0 Calma 2 Sudeste 0.2 997.4 -- 98
2020-11-14 18:00:00 14.9 2 Este 10 Este 0.3 996.8 -- 98
2020-11-14 17:00:00 14.8 0 Calma 5 Este 0.6 996.5 -- 98
2020-11-14 16:00:00 15 0 Calma 3 Noroeste 0.7 996.4 -- 95
2020-11-14 15:00:00 16 0 Calma 0 Calma 0 996.4 -- 82
2020-11-14 14:00:00 15.8 0 Calma 5 Este 0 996.7 -- 80
2020-11-14 13:00:00 15.4 0 Calma 8 Este 0 997.1 -- 83
2020-11-14 12:00:00 14.5 0 Calma 5 Este 0 997.6 -- 89
2020-11-14 11:00:00 14.4 0 Calma 4 Oeste 0 997.5 -- 88
2020-11-14 10:00:00 13.5 0 Calma 4 Oeste 0 997.2 -- 97
2020-11-14 09:00:00 12.8 0 Calma -- -- 0 996.8 -- 98
2020-11-14 08:00:00 12.5 0 Calma 6 Este 0 996.1 -- 97
2020-11-14 07:00:00 12.7 2 Sudeste 5 Sudeste 0 995.7 -- 98
2020-11-14 06:00:00 12.6 0 Calma 9 Este 0.2 995.7 -- 96
2020-11-14 05:00:00 13.3 6 Este 11 Sudeste 0 995.3 -- 89
2020-11-14 04:00:00 12.9 0 Calma 5 Sur 0 995.4 -- 93
2020-11-14 03:00:00 13 0 Calma 5 Oeste 0 996 -- 92
2020-11-14 02:00:00 12.9 0 Calma 4 Este 0 996.2 -- 90
2020-11-14 01:00:00 13.3 0 Calma 3 Sudeste 0 996.4 -- 89
2020-11-14 00:00:00 13 0 Calma 3 Este 0 996.6 -- 90
2020-11-13 23:00:00 12.6 0 Calma -- -- 0 996.5 -- 91
2020-11-13 22:00:00 12.7 0 Calma 5 Este 0 996.2 -- 87
2020-11-13 21:00:00 13.4 3 Este 5 Sudeste 0 995.8 -- 81
2020-11-13 20:00:00 13.7 0 Calma 4 Sudeste 0 995.5 -- 76
2020-11-13 19:00:00 14.4 0 Calma 5 Sur 0 995 -- 65
2020-11-13 18:00:00 17.1 2 Sudoeste 6 Sudoeste 0 994.6 -- 52
2020-11-13 17:00:00 20.7 4 Oeste 10 Noroeste 0 994.6 -- 39
2020-11-13 16:00:00 21.5 5 Oeste 10 Oeste 0 994.6 -- 39
2020-11-13 15:00:00 20.6 2 Oeste 9 Sur 0 995 -- 40
2020-11-13 14:00:00 19.1 4 Sudeste 13 Sudeste 0 995.4 -- 47
2020-11-13 13:00:00 17.5 8 Este 16 Este 0 996.2 -- 54
2020-11-13 12:00:00 16.2 7 Sudeste 14 Sudeste 0 996.9 -- 59
2020-11-13 11:00:00 13.1 6 Este 12 Este 0 997.2 -- 73
2020-11-13 10:00:00 9.3 0 Calma 5 Sudeste 0 997.3 -- 98
2020-11-13 09:00:00 7 0 Calma 3 Este 0 996.8 -- 98
2020-11-13 08:00:00 5.1 0 Calma -- -- 0 996.4 -- 98
2020-11-13 07:00:00 5.6 0 Calma -- -- 0 995.8 -- 98
2020-11-13 06:00:00 5.7 0 Calma 4 Este 0 995.7 -- 98
2020-11-13 05:00:00 6.1 0 Calma 7 Este 0 995.3 -- 98
2020-11-13 04:00:00 6.2 0 Calma 5 Sudeste 0 995.4 -- 98
2020-11-13 03:00:00 7.4 0 Calma 0 Calma 0 995.6 -- 98
2020-11-13 02:00:00 7.5 0 Calma 5 Sudeste 0 995.5 -- 98
2020-11-13 01:00:00 8.3 0 Calma -- -- 0 995.6 -- 98
2020-11-13 00:00:00 9.7 0 Calma 2 Sudoeste 0 995.5 -- 95
2020-11-12 23:00:00 9.8 0 Calma 2 Este 0 995.2 -- 93
2020-11-12 22:00:00 10.9 0 Calma 4 Sudeste 0 994.9 -- 88
2020-11-12 21:00:00 11.4 0 Calma 6 Este 0 994.7 -- 81
2020-11-12 20:00:00 11.5 0 Calma 4 Sudoeste 0 994.5 -- 75
2020-11-12 19:00:00 13.6 0 Calma 4 Este 0 994.5 -- 62
2020-11-12 18:00:00 16.3 2 Este 9 Sudeste 0 993.8 -- 48
2020-11-12 17:00:00 19.5 5 Sudeste 18 Sudeste 0 993.9 -- 40
2020-11-12 16:00:00 20.9 8 Este 17 Este 0 993.8 -- 38
2020-11-12 15:00:00 20.1 8 Este 22 Este 0 994 -- 40
2020-11-12 14:00:00 20.2 8 Este 20 Este 0 994.9 -- 45
2020-11-12 13:00:00 17.9 8 Sudeste 21 Este 0 996 -- 50
2020-11-12 12:00:00 16.8 13 Este 23 Este 0 997.1 -- 55
2020-11-12 11:00:00 14.6 12 Este 21 Este 0 997.7 -- 66
2020-11-12 10:00:00 10.2 2 Este 9 Este 0 997.7 -- 98
2020-11-12 09:00:00 8.1 2 Sudeste 5 Sudeste 0 997.8 -- 98
2020-11-12 08:00:00 6.7 0 Calma 5 Oeste 0 997.6 -- 98
2020-11-12 07:00:00 6.2 0 Calma -- -- 0 996.9 -- 98
2020-11-12 06:00:00 6.1 0 Calma 5 Este 0 997.4 -- 98
2020-11-12 05:00:00 7.1 0 Calma -- -- 0 997.6 -- 98
2020-11-12 04:00:00 7 0 Calma -- -- 0 997.8 -- 98
2020-11-12 03:00:00 7.7 0 Calma 6 Sudeste 0 998.2 -- 98
2020-11-12 02:00:00 8.4 0 Calma 4 Este 0 998.2 -- 98
2020-11-12 01:00:00 9.4 4 Sudoeste 9 Oeste 0 998.5 -- 96
2020-11-12 00:00:00 9.2 0 Calma 6 Este 0 998.4 -- 96
2020-11-11 23:00:00 9.4 5 Oeste 5 Oeste 0 998.6 -- 93
2020-11-11 22:00:00 10 0 Calma 11 Este 0 998.2 -- 91
2020-11-11 21:00:00 10.6 5 Este 9 Este 0 997.8 -- 85
2020-11-11 20:00:00 12.2 0 Calma 4 Sudoeste 0 997.4 -- 73
2020-11-11 19:00:00 14.4 0 Calma 7 Oeste 0 997.3 -- 59
2020-11-11 18:00:00 16.6 0 Calma 13 Sudeste 0 996.8 -- 45
2020-11-11 17:00:00 20.8 5 Este 16 Este 0 996.7 -- 33
2020-11-11 16:00:00 21.6 6 Este 14 Este 0 996.7 -- 32
2020-11-11 15:00:00 20.8 6 Este 15 Este 0 996.9 -- 36
2020-11-11 14:00:00 19.9 8 Este 19 Este 0 997.6 -- 41
2020-11-11 13:00:00 19.1 9 Este 19 Este 0 998.5 -- 48
2020-11-11 12:00:00 17.5 10 Este 21 Este 0 999.6 -- 55
2020-11-11 11:00:00 15.5 9 Sudeste 18 Sudeste 0 999.9 -- 63
2020-11-11 10:00:00 10.9 0 Calma 5 Este 0 1000.1 -- 98
2020-11-11 09:00:00 8.1 0 Calma 6 Noroeste 0 1000.4 -- 98
2020-11-11 08:00:00 6.3 0 Calma 2 Sudeste 0 999.8 -- 98
2020-11-11 07:00:00 7.1 0 Calma 3 Oeste 0 999.8 -- 98
2020-11-11 06:00:00 7 0 Calma 4 Nordeste 0 999.9 -- 98
2020-11-11 05:00:00 7.4 0 Calma -- -- 0 1000.2 -- 98
2020-11-11 04:00:00 7.9 0 Calma -- -- 0 1000.4 -- 98
2020-11-11 03:00:00 7.4 0 Calma -- -- 0 1000.6 -- 98
2020-11-11 02:00:00 7.5 0 Calma -- -- 0 1000.7 -- 98
2020-11-11 01:00:00 7.9 0 Calma 3 Este 0 1000.6 -- 98
2020-11-11 00:00:00 9.3 2 Este 7 Este 0 1000.7 -- 97
2020-11-10 23:00:00 10.2 0 Calma -- -- 0 1000.8 -- 95
2020-11-10 22:00:00 11.2 0 Calma 6 Sudeste 0 1000.6 -- 91
2020-11-10 21:00:00 11.8 5 Este 6 Este 0 1000.1 -- 85
2020-11-10 20:00:00 12.6 2 Sudeste 5 Sudeste 0 999.9 -- 77
2020-11-10 19:00:00 14.7 3 Oeste 6 Sudoeste 0 999.4 -- 64
2020-11-10 18:00:00 17 3 Sur 9 Sudeste 0 999 -- 47
2020-11-10 17:00:00 21.4 5 Sudeste 12 Este 0 999.1 -- 35
2020-11-10 16:00:00 21.4 7 Este 14 Este 0 998.9 -- 35
2020-11-10 15:00:00 20.8 8 Este 20 Este 0 999.2 -- 41
2020-11-10 14:00:00 19.9 9 Este 21 Este 0 999.7 -- 47
2020-11-10 13:00:00 18.5 6 Sudeste 20 Este 0 1000.5 -- 55
2020-11-10 12:00:00 17 4 Sudeste 17 Este 0 1001.5 -- 64
2020-11-10 11:00:00 13.6 8 Este 18 Este 0 1001.7 -- 79
2020-11-10 10:00:00 11.6 9 Este 17 Este 0 1001.9 -- 98
2020-11-10 09:00:00 10.2 3 Sudeste 7 Sudeste 0 1001.6 -- 98
2020-11-10 08:00:00 9.5 0 Calma 5 Este 0 1000.9 -- 98
2020-11-10 07:00:00 9.1 0 Calma 2 Este 0 1000.7 -- 98
2020-11-10 06:00:00 8.6 0 Calma 2 Este 0 1000.3 -- 98
2020-11-10 05:00:00 8.8 0 Calma 2 Sur 0 1000.1 -- 98
2020-11-10 04:00:00 8.5 0 Calma 3 Este 0 1000 -- 98
2020-11-10 03:00:00 8 0 Calma 0 Calma 0 1000.2 -- 98
2020-11-10 02:00:00 7.8 2 Sudeste 5 Este 0 1000 -- 98
2020-11-10 01:00:00 8.7 0 Calma -- -- 0 1000.1 -- 98
2020-11-10 00:00:00 9.4 0 Calma -- -- 0 1000.3 -- 98
2020-11-09 23:00:00 9.6 0 Calma 0 Calma 0 1000.3 -- 98
2020-11-09 22:00:00 10.6 0 Calma 5 Este 0 999.9 -- 98
2020-11-09 21:00:00 11.1 0 Calma 5 Este 0 999.5 -- 98
2020-11-09 20:00:00 12.5 0 Calma 6 Noroeste 0 999.3 -- 94
2020-11-09 19:00:00 14 0 Calma 8 Oeste 0 998.7 -- 86
2020-11-09 18:00:00 15.7 6 Oeste 14 Oeste 0 998.1 -- 77
2020-11-09 17:00:00 18.5 9 Oeste 17 Oeste 0 998.1 -- 61
2020-11-09 16:00:00 18.8 8 Oeste 15 Sudoeste 0 997.9 -- 61
2020-11-09 15:00:00 17.9 6 Noroeste 14 Noroeste 0 997.9 -- 65
2020-11-09 14:00:00 18.1 4 Noroeste 9 Oeste 0 998.2 -- 61
2020-11-09 13:00:00 17.1 3 Este 9 Sudeste 0 998.8 -- 67
2020-11-09 12:00:00 15 3 Este 11 Este 0 999.5 -- 76
2020-11-09 11:00:00 13.4 5 Este 14 Este 0 999.8 -- 79
2020-11-09 10:00:00 11.9 4 Este 11 Este 0 999.6 -- 91
2020-11-09 09:00:00 10.7 3 Sudeste 10 Sudeste 0 999.3 -- 98
2020-11-09 08:00:00 9.5 0 Calma 5 Este 0 998.5 -- 98
2020-11-09 07:00:00 8.6 0 Calma 3 Este 0 997.8 -- 98
2020-11-09 06:00:00 8.1 0 Calma -- -- 0 997.5 -- 98
2020-11-09 05:00:00 8.1 0 Calma 4 Este 0 997.3 -- 98
2020-11-09 04:00:00 8.6 0 Calma 2 Este 0 997.3 -- 98
2020-11-09 03:00:00 9.1 0 Calma -- -- 0 997.5 -- 98
2020-11-09 02:00:00 9.4 0 Calma 2 Sudeste 0 997.4 -- 98
2020-11-09 01:00:00 10 0 Calma 4 Sudeste 0 997.4 -- 98
2020-11-09 00:00:00 10.5 0 Calma -- -- 0 997.4 -- 98
2020-11-08 23:00:00 10.8 0 Calma 7 Este 0 997.5 -- 98
2020-11-08 22:00:00 11.2 0 Calma 4 Este 0 997.2 -- 98
2020-11-08 21:00:00 12.1 2 Sudeste 5 Este 0 997.2 -- 96
2020-11-08 20:00:00 13.1 0 Calma 5 Oeste 0 997.1 -- 90
2020-11-08 19:00:00 15 3 Este 10 Sudoeste 0 996.8 -- 77
2020-11-08 18:00:00 17 7 Sudoeste 8 Sudoeste 0 996.4 -- 64
2020-11-08 17:00:00 19.3 9 Oeste 17 Noroeste 0 996.5 -- 50
2020-11-08 16:00:00 21.2 9 Oeste 15 Oeste 0 996.5 -- 45
2020-11-08 15:00:00 21.1 4 Noroeste 10 Norte 0 996.8 -- 45
2020-11-08 14:00:00 19.5 2 Noroeste 10 Este 0 997.3 -- 46
2020-11-08 13:00:00 17.9 4 Sudeste 18 Este 0 998.1 -- 54
2020-11-08 12:00:00 16 7 Sudeste 18 Este 0 999 -- 64
2020-11-08 11:00:00 14.3 10 Sudeste 17 Este 0 999.3 -- 70
2020-11-08 10:00:00 11.3 8 Este 12 Este 0 999.7 -- 98
2020-11-08 09:00:00 9.2 4 Este 7 Este 0 999.6 -- 98
2020-11-08 08:00:00 7.9 4 Este 7 Sudeste 0 999.2 -- 98
2020-11-08 07:00:00 8 3 Sudeste 8 Sudeste 0 998.7 -- 98
2020-11-08 06:00:00 7.7 0 Calma 3 Sur 0 998.9 -- 98
2020-11-08 05:00:00 8 0 Calma 5 Sudeste 0 999 -- 98
2020-11-08 04:00:00 8.8 0 Calma 4 Este 0 998.9 -- 98
2020-11-08 03:00:00 9.1 0 Calma 4 Sudeste 0 998.9 -- 98
2020-11-08 02:00:00 9.7 0 Calma 7 Este 0 999.1 -- 98
2020-11-08 01:00:00 9.5 0 Calma -- -- 0 999.5 -- 98
2020-11-08 00:00:00 9.4 0 Calma 6 Sudeste 0 999.6 -- 98
2020-11-07 23:00:00 10.3 0 Calma 5 Este 0 999.6 -- 98
2020-11-07 22:00:00 11.3 0 Calma 5 Sur 0 999.2 -- 98
2020-11-07 21:00:00 11.5 0 Calma 8 Este 0 999 -- 98
2020-11-07 20:00:00 12.6 3 Oeste 7 Sur 0 998.8 -- 94
2020-11-07 19:00:00 14.5 6 Sudoeste 9 Sudoeste 0 998.4 -- 83
2020-11-07 18:00:00 15.9 6 Oeste 15 Oeste 0 997.9 -- 76
2020-11-07 17:00:00 18.4 10 Oeste 20 Oeste 0 997.6 -- 64
2020-11-07 16:00:00 17.9 13 Oeste 22 Noroeste 0 997.3 -- 66
2020-11-07 15:00:00 18 17 Oeste 31 Oeste 0 997 -- 67
2020-11-07 14:00:00 17.6 18 Oeste 27 Oeste 0 996.9 -- 72
2020-11-07 13:00:00 16.3 17 Noroeste 27 Noroeste 0 997.1 -- 84
2020-11-07 12:00:00 15.5 14 Oeste 27 Oeste 0 997.1 -- 90
2020-11-07 11:00:00 14.6 8 Oeste 14 Oeste 0.1 996.6 -- 96
2020-11-07 10:00:00 13.4 0 Calma 6 Este 0 995.5 -- 98
2020-11-07 09:00:00 12 0 Calma 5 Sudeste 0 993.9 -- 98
2020-11-07 08:00:00 11.8 0 Calma 7 Norte 6 992.6 -- 98
2020-11-07 07:00:00 11.8 0 Calma 15 Sur 1.4 991.6 -- 98
2020-11-07 06:00:00 11.5 2 Sudeste 6 Sudeste 0 991 -- 98
2020-11-07 05:00:00 11.9 0 Calma 36 Oeste 0.3 991 -- 96
2020-11-07 04:00:00 13 32 Oeste 49 Oeste 1.8 992.3 -- 87
2020-11-07 03:00:00 14.4 4 Este 14 Este 0 990.2 -- 94
2020-11-07 02:00:00 14.7 6 Este 20 Sudeste 0 990.1 -- 93
2020-11-07 01:00:00 15 13 Este 28 Este 1.9 989.9 -- 98
2020-11-07 00:00:00 15.4 3 Sudeste 12 Oeste 4.3 991.3 -- 98
2020-11-06 23:00:00 15.7 4 Oeste 19 Oeste 0.3 992.2 -- 96
2020-11-06 22:00:00 16.9 12 Oeste 31 Oeste 0.5 991.3 -- 87
2020-11-06 21:00:00 16.5 6 Oeste 17 Sur 0 989.1 -- 85
2020-11-06 20:00:00 19.3 12 Sur 25 Sudeste 0 989.8 -- 62
2020-11-06 19:00:00 20.5 14 Oeste 19 Oeste 0 988.6 -- 56
2020-11-06 18:00:00 20.3 10 Oeste 29 Oeste 0 987.2 -- 56
2020-11-06 17:00:00 21.8 4 Sudeste 17 Este 0 986.1 -- 50
2020-11-06 16:00:00 23.7 9 Este 23 Este 0 985.8 -- 41
2020-11-06 15:00:00 23.3 13 Este 26 Este 0 985.7 -- 42
2020-11-06 14:00:00 23.7 10 Este 24 Este 0 986.2 -- 41
2020-11-06 13:00:00 23.4 10 Este 25 Este 0 987.1 -- 42
2020-11-06 12:00:00 23.8 12 Este 24 Este 0 987.8 -- 45
2020-11-06 11:00:00 20.5 13 Este 25 Este 0 988 -0.4 47
2020-11-06 10:00:00 18.4 10 Este 22 Este 0 988.5 -- 54
2020-11-06 09:00:00 16.7 10 Este 28 Sudeste 0 988.3 -- 57
2020-11-06 08:00:00 16.6 13 Este 23 Este 0 988.4 -- 56
2020-11-06 07:00:00 15.7 7 Este 15 Sudeste 0 988.5 -- 62
2020-11-06 06:00:00 15.9 7 Sudeste 13 Este 0 988.9 -- 61
2020-11-06 05:00:00 15.5 9 Este 13 Este 0 989.3 -- 64
2020-11-06 04:00:00 15.5 6 Este 15 Este 0 989.9 -- 66
2020-11-06 03:00:00 16.5 6 Este 15 Sudeste 0 990.6 -- 62
2020-11-06 02:00:00 16 2 Sudeste 15 Este 0 990.9 -- 65
2020-11-06 01:00:00 15.7 8 Este 22 Este 0 991 -- 67
2020-11-06 00:00:00 15.9 10 Este 17 Este 0 991 -- 67
2020-11-05 23:00:00 15.1 4 Sudeste 11 Este 0 990.7 -- 74
2020-11-05 22:00:00 14.8 3 Sudeste 11 Este 0 990.7 -- 81
2020-11-05 21:00:00 14.2 3 Este 11 Este 0 990.7 -- 92
2020-11-05 20:00:00 14.7 4 Este 8 Este 0 990.4 -- 96
2020-11-05 19:00:00 15.5 0 Calma 10 Este 0 990.2 -- 92
2020-11-05 18:00:00 17.3 2 Sudeste 19 Este 0 989.4 -- 84
2020-11-05 17:00:00 20 11 Este 28 Este 0 988.6 -- 57
2020-11-05 16:00:00 20.5 13 Este 28 Este 0 988.6 -- 55
2020-11-05 15:00:00 19.5 7 Este 28 Este 0 988.6 -- 60
2020-11-05 14:00:00 18.8 10 Este 27 Este 0 988.5 -- 65
2020-11-05 13:00:00 18.1 15 Este 27 Este 0 989.4 -- 67
2020-11-05 12:00:00 15.2 0 Calma 5 Sur 0.2 990.3 -- 96
2020-11-05 11:00:00 14.5 2 Sudeste 17 Sudeste 0.9 991.5 -- 93
2020-11-05 10:00:00 14.7 4 Sudeste 10 Este 0 990.8 -- 86
2020-11-05 09:00:00 14.5 5 Sudeste 14 Este 0 990.1 -- 85
2020-11-05 08:00:00 14.3 9 Sudeste 21 Este 0 989.5 -- 84
2020-11-05 07:00:00 14.2 12 Este 26 Este 0 989.1 -- 85
2020-11-05 06:00:00 14.2 7 Sudeste 20 Este 0 988.9 -- 89
2020-11-05 05:00:00 14.6 5 Este 17 Este 0 988.9 -- 84
2020-11-05 04:00:00 14.1 4 Este 17 Este 0.3 988.7 -- 91
2020-11-05 03:00:00 13.4 6 Este 18 Este 1 989.1 -- 91
2020-11-05 02:00:00 15.5 10 Este 26 Este 0 988.7 -- 67
2020-11-05 01:00:00 15.1 10 Este 20 Este 0 988.1 -- 76
2020-11-05 00:00:00 14.3 9 Este 18 Este 0 989.3 -- 89
2020-11-04 23:00:00 13.8 4 Sudeste 11 Este 0 989.7 -- 95
2020-11-04 22:00:00 14.1 0 Calma 7 Sudeste 0 989.6 -- 96
2020-11-04 21:00:00 14.1 2 Sur 5 Este 0 989.5 -- 96
2020-11-04 20:00:00 14.4 0 Calma 13 Sur 0 989.5 -- 94
2020-11-04 19:00:00 14.5 5 Sudeste 13 Sudeste 0 989 -- 93
2020-11-04 18:00:00 14.5 2 Sudeste 9 Sudoeste 0.1 989 -- 91
2020-11-04 17:00:00 15.2 4 Sudeste 18 Este 0 989.7 -- 84
2020-11-04 16:00:00 16.1 10 Este 17 Este 0 990 -- 75
2020-11-04 15:00:00 16.4 9 Este 15 Este 0 990.2 -- 71
2020-11-04 14:00:00 16 6 Sudeste 13 Este 0 991.4 -- 78
2020-11-04 13:00:00 16.2 3 Sudeste 14 Este 0 992.2 -- 76
2020-11-04 12:00:00 14.7 6 Este 14 Sudeste 0 993.2 -- 90
2020-11-04 11:00:00 13.8 4 Este 13 Este 0.1 993.7 -0.3 98
2020-11-04 10:00:00 13.5 0 Calma 7 Este 2.3 994.5 -- 98
2020-11-04 09:00:00 13.4 0 Calma 13 Sudoeste 5 994.4 -- 98
2020-11-04 08:00:00 13.3 0 Calma 8 Sur 0.3 994 -- 98
2020-11-04 07:00:00 13.3 0 Calma 14 Sudoeste 0 994.1 -- 98
2020-11-04 06:00:00 13.4 3 Este 15 Sur 0.3 994.3 -- 98
2020-11-04 05:00:00 13.6 7 Este 15 Sudeste 1.9 994.2 -- 98
2020-11-04 04:00:00 13.8 4 Sudoeste 20 Noroeste 4.2 995.8 -- 96
2020-11-04 03:00:00 15.5 12 Noroeste 23 Oeste 0.3 995.9 -- 68
2020-11-04 02:00:00 17.1 0 Calma 12 Nordeste 0 995.7 -- 59
2020-11-04 01:00:00 18.1 0 Calma 12 Este 0 996.2 -- 56
2020-11-04 00:00:00 17.8 3 Nordeste 11 Norte 0 997.3 -- 60
2020-11-03 23:00:00 18 0 Calma 6 Este 0 997.6 -- 61
2020-11-03 22:00:00 17.7 0 Calma 6 Sudeste 0 997.4 -- 62
2020-11-03 21:00:00 18 0 Calma 10 Este 0 997.3 -- 63
2020-11-03 20:00:00 17.9 0 Calma -- -- 0 996.7 -- 62
2020-11-03 19:00:00 19.9 0 Calma 17 Oeste 0 996.2 -- 51
2020-11-03 18:00:00 22.5 12 Sudoeste 16 Sudoeste 0 995.9 -- 41
2020-11-03 17:00:00 23.9 9 Oeste 15 Oeste 0 995.8 -- 35
2020-11-03 16:00:00 24.4 10 Oeste 18 Oeste 0 995.8 -- 33
2020-11-03 15:00:00 26.8 4 Oeste 12 Oeste 0 995.9 -- 29
2020-11-03 14:00:00 24.7 2 Sudoeste 11 Noroeste 0 996.7 -- 31
2020-11-03 13:00:00 23.4 5 Este 14 Este 0 997.6 -- 34
2020-11-03 12:00:00 21.7 5 Sudeste 15 Este 0 998.5 -- 39
2020-11-03 11:00:00 18.1 4 Nordeste 13 Este 0 998.8 -- 48
2020-11-03 10:00:00 13.4 3 Sudeste 12 Este 0 999 -- 67
2020-11-03 09:00:00 9.2 0 Calma 5 Este 0 999 -- 94
2020-11-03 08:00:00 6.8 0 Calma 5 Este 0 998.4 -- 98
2020-11-03 07:00:00 7 0 Calma 5 Este 0 998.5 -- 98
2020-11-03 06:00:00 6.9 0 Calma 4 Sudeste 0 998.1 -- 97
2020-11-03 05:00:00 8 0 Calma 8 Oeste 0 998 -- 96
2020-11-03 04:00:00 7.2 4 Noroeste 6 Noroeste 0 998 -- 90
2020-11-03 03:00:00 8.6 0 Calma 5 Oeste 0 997.8 -- 91
2020-11-03 02:00:00 8.7 0 Calma 9 Este 0 997.6 -- 88
2020-11-03 01:00:00 9.6 0 Calma 6 Este 0 997.8 -- 82
2020-11-03 00:00:00 10.7 0 Calma -- -- 0 997.8 -- 78
2020-11-02 23:00:00 11.7 0 Calma 5 Sudeste 0 997.8 -- 75
2020-11-02 22:00:00 12.9 5 Este 7 Este 0 997.4 -- 67
2020-11-02 21:00:00 14.1 0 Calma 6 Este 0 997.1 -- 60
2020-11-02 20:00:00 15.5 0 Calma 3 Sudeste 0 996.9 -- 52
2020-11-02 19:00:00 18.4 0 Calma 6 Noroeste 0 996.2 -- 39
2020-11-02 18:00:00 22.8 4 Oeste 9 Oeste 0 995.8 -- 30
2020-11-02 17:00:00 27 7 Oeste 13 Oeste 0 995.6 -- 25
2020-11-02 16:00:00 27.7 6 Oeste 12 Oeste 0 995.9 -- 25
2020-11-02 15:00:00 27.3 3 Noroeste 10 Oeste 0 996.1 -- 26
2020-11-02 14:00:00 25.5 4 Sur 10 Sudeste 0 997 -- 30
2020-11-02 13:00:00 23.5 3 Este 12 Este 0 997.9 -- 34
2020-11-02 12:00:00 21 4 Este 14 Sudeste 0 998.8 -- 40
2020-11-02 11:00:00 18.1 8 Este 15 Sudeste 0 999 -- 49
2020-11-02 10:00:00 14.1 6 Este 15 Este 0 999.3 -- 67
2020-11-02 09:00:00 8.8 0 Calma 2 Oeste 0 999.3 -- 98
2020-11-02 08:00:00 6.9 0 Calma 2 Este 0 998.6 -- 98
2020-11-02 07:00:00 6.4 0 Calma 4 Sudeste 0 998.4 -- 98
2020-11-02 06:00:00 7.2 0 Calma 3 Este 0 998.2 -- 98
2020-11-02 05:00:00 7.5 0 Calma 3 Este 0 998.2 -- 98
2020-11-02 04:00:00 8 0 Calma 0 Calma 0 998.2 -- 98
2020-11-02 03:00:00 8.9 0 Calma 5 Sudeste 0 998.2 -- 97
2020-11-02 02:00:00 9.5 0 Calma 5 Oeste 0 998.3 -- 93
2020-11-02 01:00:00 10.8 0 Calma 4 Sudeste 0 998.6 -- 93
2020-11-02 00:00:00 10.7 0 Calma 3 Este 0 998.7 -- 89
2020-11-01 23:00:00 12.1 0 Calma 6 Sudeste 0 998.7 -- 86
2020-11-01 22:00:00 13.3 0 Calma 5 Este 0 998.4 -- 77
2020-11-01 21:00:00 14.3 0 Calma -- -- 0 998 -- 71
2020-11-01 20:00:00 16.3 0 Calma -- -- 0 997.9 -- 60
2020-11-01 19:00:00 18.6 0 Calma 3 Noroeste 0 997.5 -- 47
2020-11-01 18:00:00 21.6 2 Sudoeste 7 Sudoeste 0 997.4 -- 38
2020-11-01 17:00:00 26.6 3 Oeste 9 Sudoeste 0 997.3 -- 29
2020-11-01 16:00:00 28 2 Oeste 9 Noroeste 0 997.7 -- 28
2020-11-01 15:00:00 26.9 3 Sudoeste 11 Este 0 998 -- 30
2020-11-01 14:00:00 24.8 4 Este 10 Sudeste 0 998.7 -- 33
2020-11-01 13:00:00 22.9 3 Sudeste 13 Este 0 999.9 -- 38
2020-11-01 12:00:00 20.1 8 Este 14 Este 0 1000.8 -- 45
2020-11-01 11:00:00 17.9 2 Este 8 Este 0 1001.2 -- 54
2020-11-01 10:00:00 13.2 4 Este 7 Sudeste 0 1001.2 -- 75
2020-11-01 09:00:00 9 0 Calma 3 Noroeste 0 1001 -- 98
2020-11-01 08:00:00 7.3 0 Calma 5 Oeste 0 1000.4 -- 98
2020-11-01 07:00:00 7.8 0 Calma 5 Sudeste 0 1000.3 -- 98
2020-11-01 06:00:00 7.6 0 Calma 5 Este 0 1000.1 -- 98
2020-11-01 05:00:00 8.3 0 Calma 4 Sudeste 0 1000.2 -- 98
2020-11-01 04:00:00 8.8 0 Calma 3 Este 0 1000.6 -- 97
2020-11-01 03:00:00 10 0 Calma 5 Este 0 1000.7 -- 96
2020-11-01 02:00:00 9.5 2 Sudeste 5 Este 0 1000.4 -- 95
2020-11-01 01:00:00 10.7 0 Calma 4 Sudoeste 0 1000.5 -- 92
2020-11-01 00:00:00 11.5 0 Calma 7 Este 0 1000.4 -- 87
2020-10-31 23:00:00 13 0 Calma 5 Sudeste 0 1000.4 -- 82
2020-10-31 22:00:00 14.3 0 Calma 4 Oeste 0 999.9 -- 76
2020-10-31 21:00:00 15.1 0 Calma 4 Este 0 999.5 -- 68
2020-10-31 20:00:00 17.1 0 Calma 6 Este 0 999.1 -- 58
2020-10-31 19:00:00 20.2 5 Noroeste 7 Noroeste 0 998.5 -- 46
2020-10-31 18:00:00 22.9 5 Oeste 13 Oeste 0 998.2 -- 35
2020-10-31 17:00:00 26.6 10 Oeste 14 Noroeste 0 998.2 -- 29
2020-10-31 16:00:00 27.2 5 Oeste 10 Sudoeste 0 998.2 -- 29
2020-10-31 15:00:00 27.3 2 Sudeste 8 Oeste 0 998.5 -- 31
2020-10-31 14:00:00 26 2 Sudeste 12 Sudeste 0 999.4 -- 32
2020-10-31 13:00:00 23.3 5 Sudeste 14 Sudeste 0 1000.3 -- 37
2020-10-31 12:00:00 21.2 7 Sudeste 14 Este 0 1001.2 -- 41
2020-10-31 11:00:00 18.2 8 Este 16 Este 0 1001.5 -- 52
2020-10-31 10:00:00 14.8 5 Este 10 Este 0 1001.7 -- 70
2020-10-31 09:00:00 9.7 0 Calma 7 Este 0 1001.5 -- 98
2020-10-31 08:00:00 8.5 0 Calma 5 Este 0 1001 -- 98
2020-10-31 07:00:00 8 2 Oeste 6 Sudeste 0 1000.7 -- 98
2020-10-31 06:00:00 9.1 0 Calma 4 Este 0 1000.1 -- 97
2020-10-31 05:00:00 9.4 3 Este 6 Este 0 999.8 -- 96
2020-10-31 04:00:00 10.4 0 Calma 3 Sudeste 0 999.7 -- 95
2020-10-31 03:00:00 10.6 0 Calma 4 Oeste 0 999.6 -- 93
2020-10-31 02:00:00 11.3 2 Sudeste 4 Este 0 999.6 -- 91
2020-10-31 01:00:00 11.2 0 Calma -- -- 0 999.5 -- 91
2020-10-31 00:00:00 12.1 0 Calma 6 Sudeste 0 999.5 -- 86
2020-10-30 23:00:00 13.3 2 Noroeste 6 Sur 0 999.4 -- 79
2020-10-30 22:00:00 13.5 2 Sur 8 Este 0 999.2 -- 79
2020-10-30 21:00:00 15.5 0 Calma 7 Este 0 998.7 -- 64
2020-10-30 20:00:00 18.5 2 Noroeste 9 Oeste 0 998.2 -- 50
2020-10-30 19:00:00 19.3 4 Oeste 6 Oeste 0 997.7 -- 44
2020-10-30 18:00:00 23.4 0 Calma 10 Sudeste 0 997.5 -- 32
2020-10-30 17:00:00 28.2 4 Sudeste 14 Sudeste 0 997.4 -- 27
2020-10-30 16:00:00 27.5 6 Este 18 Este 0 997.6 -- 28
2020-10-30 15:00:00 26.9 9 Este 20 Este 0 998 -- 30
2020-10-30 14:00:00 26 9 Este 21 Este 0 998.6 -- 34
2020-10-30 13:00:00 23.9 6 Sudeste 17 Este 0 999.5 -- 37
2020-10-30 12:00:00 22.4 7 Sudeste 18 Sudeste 0 1000.4 -- 44
2020-10-30 11:00:00 19.2 9 Este 17 Este 0 1000.8 -- 53
2020-10-30 10:00:00 15.5 0 Calma 6 Sudeste 0 1001.2 -- 80
2020-10-30 09:00:00 9.9 0 Calma -- -- 0 1001 -- 98
2020-10-30 08:00:00 8.2 0 Calma -- -- 0 1000.5 -- 98
2020-10-30 07:00:00 8.4 0 Calma -- -- 0 1000.3 -- 98
2020-10-30 06:00:00 8.3 0 Calma 0 Calma 0 1000.1 -- 98
2020-10-30 05:00:00 8.9 0 Calma 4 Sudeste 0 1000.1 -- 98
2020-10-30 04:00:00 9.2 0 Calma 2 Sudoeste 0 1000 -- 98
2020-10-30 03:00:00 9.8 0 Calma -- -- 0 1000.1 -- 98
2020-10-30 02:00:00 10.5 0 Calma 3 Noroeste 0 999.9 -- 96
2020-10-30 01:00:00 10.6 2 Oeste 3 Oeste 0 1000.2 -- 94
2020-10-30 00:00:00 11.2 0 Calma 0 Calma 0 1000.4 -- 92
2020-10-29 23:00:00 12.1 0 Calma 5 Este 0 1000.2 -- 87
2020-10-29 22:00:00 12.8 0 Calma 6 Este 0 1000.2 -- 84
2020-10-29 21:00:00 13.9 4 Este 9 Este 0 999.5 -- 76
2020-10-29 20:00:00 15.8 0 Calma 6 Sudoeste 0 999.2 -- 62
2020-10-29 19:00:00 18.4 5 Oeste 8 Oeste 0 998.6 -- 50
2020-10-29 18:00:00 23.1 0 Calma 10 Este 0 998.1 -- 35
2020-10-29 17:00:00 26.4 4 Sudeste 12 Este 0 998.2 -- 30
2020-10-29 16:00:00 26.4 5 Este 15 Sudeste 0 998.3 -- 31
2020-10-29 15:00:00 25.6 9 Este 21 Este 0 998.7 -- 34
2020-10-29 14:00:00 24.6 8 Sudeste 18 Este 0 999.5 -- 38
2020-10-29 13:00:00 22.3 9 Sudeste 17 Sudeste 0 1000.5 -- 44
2020-10-29 12:00:00 20.2 9 Este 18 Este 0 1001.2 -- 50
2020-10-29 11:00:00 17.8 10 Sudeste 19 Este 0 1001.6 -- 58
2020-10-29 10:00:00 15 8 Este 15 Este 0 1001.7 -- 71
2020-10-29 09:00:00 9.4 0 Calma 6 Sudeste 0 1001.3 -- 98
2020-10-29 08:00:00 7.6 0 Calma 6 Este 0 1000.7 -- 98
2020-10-29 07:00:00 6.5 0 Calma 3 Sudeste 0 1000.6 -- 98
2020-10-29 06:00:00 7.2 0 Calma 7 Este 0 1000.3 -- 98
2020-10-29 05:00:00 7.9 0 Calma 4 Este 0 999.8 -- 98
2020-10-29 04:00:00 7.8 0 Calma 3 Este 0 999.6 -- 98
2020-10-29 03:00:00 8.1 0 Calma 3 Sudeste 0 999.6 -- 98
2020-10-29 02:00:00 9.2 0 Calma 6 Oeste 0 999.7 -- 98
2020-10-29 01:00:00 9.5 2 Este 5 Sudeste 0 999.7 -- 97
2020-10-29 00:00:00 9.9 0 Calma 5 Sudeste 0 999.6 -- 96
2020-10-28 23:00:00 10.8 0 Calma 6 Este 0 999.6 -- 94
2020-10-28 22:00:00 11.7 4 Este 6 Este 0 999.3 -- 90
2020-10-28 21:00:00 12.9 0 Calma 5 Sudeste 0 998.9 -- 85
2020-10-28 20:00:00 13.7 3 Oeste 4 Oeste 0 998.5 -- 75
2020-10-28 19:00:00 15.8 0 Calma 5 Sur 0 997.6 -- 63
2020-10-28 18:00:00 19.1 0 Calma 6 Oeste 0 997.1 -- 44
2020-10-28 17:00:00 22.6 3 Noroeste 7 Noroeste 0 997.1 -- 37
2020-10-28 16:00:00 22.8 0 Calma 9 Sur 0 997 -- 35
2020-10-28 15:00:00 22.1 4 Nordeste 13 Sudeste 0 997.4 -- 38
2020-10-28 14:00:00 19.8 5 Este 14 Sudeste 0 997.9 -- 40
2020-10-28 13:00:00 18.4 6 Sudeste 18 Este 0 998.5 -- 42
2020-10-28 12:00:00 15.7 8 Este 17 Este 0 999.4 -- 54
2020-10-28 11:00:00 13 8 Este 16 Este 0 999.5 -- 64
2020-10-28 10:00:00 10 2 Este 8 Sur 0 999.6 -- 87
2020-10-28 09:00:00 6.7 3 Este 7 Este 0 999.3 -- 98
2020-10-28 08:00:00 5 0 Calma 3 Sudeste 0 998.6 -- 98
2020-10-28 07:00:00 4.3 0 Calma 3 Sur 0 998.2 -- 98
2020-10-28 06:00:00 4.7 0 Calma 5 Este 0 997.8 -- 98
2020-10-28 05:00:00 4.9 0 Calma 4 Sur 0 997.5 -- 98
2020-10-28 04:00:00 4.9 0 Calma 4 Sudeste 0 997.5 -- 98
2020-10-28 03:00:00 5.5 0 Calma 5 Este 0 997.5 -- 98
2020-10-28 02:00:00 6 0 Calma -- -- 0 997.3 -- 98
2020-10-28 01:00:00 6.5 0 Calma 5 Este 0 997.3 -- 98
2020-10-28 00:00:00 7.3 0 Calma 5 Este 0 997.3 -- 96